Time;durP1;ratioP1;P1;durP2;ratioP2;P2;SDS_P1;SDS_P2;PMS_P1;PMS_P2;Temp;Humidity;BMP_temperature;BMP_pressure;BME280_temperature;BME280_humidity;BME280_pressure;Samples;Min_cycle;Max_cycle;Signal;HPM_P1;HPM_P2
2023/07/07 00:00:24;;;;;;;28.60;6.80;;;;;;;27.50;47.01;99054.02;78006;1301;3052654;-61
2023/07/07 00:02:51;;;;;;;28.40;6.60;;;;;;;27.50;46.97;99054.84;79309;1300;3014918;-61
2023/07/07 00:05:19;;;;;;;33.00;7.10;;;;;;;27.52;46.75;99056.05;79242;1300;3012856;-62
2023/07/07 00:07:49;;;;;;;31.00;7.40;;;;;;;27.51;46.69;99055.29;78244;1301;3056970;-65
2023/07/07 00:10:16;;;;;;;38.80;7.30;;;;;;;27.53;46.45;99049.98;79397;1301;3013301;-63
2023/07/07 00:12:43;;;;;;;35.30;8.00;;;;;;;27.54;46.25;99053.05;79329;1298;3011854;-64
2023/07/07 00:15:11;;;;;;;55.20;9.20;;;;;;;27.54;46.37;99048.64;77996;1300;3029045;-62
2023/07/07 00:17:41;;;;;;;46.20;9.20;;;;;;;27.53;46.31;99052.54;79303;1298;3013416;-63
2023/07/07 00:20:11;;;;;;;61.90;9.10;;;;;;;27.51;46.49;99046.74;78019;1301;3026596;-63
2023/07/07 00:22:37;;;;;;;59.50;10.70;;;;;;;27.48;46.71;99047.48;79306;1296;3013038;-62
2023/07/07 00:25:08;;;;;;;46.10;8.70;;;;;;;27.44;46.73;99050.41;78032;1300;3027085;-62
2023/07/07 00:27:36;;;;;;;44.70;8.00;;;;;;;27.42;46.81;99048.36;79325;1295;3013482;-63
2023/07/07 00:30:03;;;;;;;34.10;7.80;;;;;;;27.40;46.81;99046.88;79244;1296;3012039;-64
2023/07/07 00:32:31;;;;;;;38.20;6.90;;;;;;;27.38;46.92;99049.48;78062;1301;3052570;-61
2023/07/07 00:34:58;;;;;;;26.60;6.90;;;;;;;27.36;47.01;99052.54;79202;1301;3012908;-61
2023/07/07 00:37:25;;;;;;;28.70;6.80;;;;;;;27.36;47.13;99053.30;79251;1301;3011452;-62
2023/07/07 00:39:53;;;;;;;24.00;5.50;;;;;;;27.37;47.17;99053.38;78106;1301;3028818;-62
2023/07/07 00:42:19;;;;;;;23.10;5.80;;;;;;;27.37;47.22;99047.45;79284;1296;3020853;-62
2023/07/07 00:45:08;;;;;;;31.30;5.40;;;;;;;27.32;47.11;99050.17;79296;1295;3011627;-63
2023/07/07 00:48:00;;;;;;;26.30;5.90;;;;;;;27.28;47.28;99048.08;78045;1301;3052838;-62
2023/07/07 00:50:30;;;;;;;20.30;5.00;;;;;;;27.23;47.20;99044.11;78239;1298;3052946;-63
2023/07/07 00:52:57;;;;;;;20.40;6.00;;;;;;;27.23;46.76;99042.09;79603;1295;3012585;-64
2023/07/07 00:55:35;;;;;;;21.10;5.90;;;;;;;27.23;46.84;99043.73;78772;1301;3011803;-64
2023/07/07 00:58:05;;;;;;;20.70;5.50;;;;;;;27.22;47.03;99047.96;78122;1298;3056205;-61
2023/07/07 01:00:33;;;;;;;18.40;5.20;;;;;;;27.22;47.11;99047.73;79549;1295;3013592;-62
2023/07/07 01:03:07;;;;;;;25.60;5.10;;;;;;;27.20;47.11;99046.70;79090;1298;3013299;-63
2023/07/07 01:05:37;;;;;;;14.10;4.80;;;;;;;27.18;46.79;99046.77;79485;1296;3011661;-62
2023/07/07 01:08:06;;;;;;;11.30;4.80;;;;;;;27.19;46.75;99045.04;78076;1301;3053741;-62
2023/07/07 01:10:35;;;;;;;19.30;5.50;;;;;;;27.18;46.85;99041.94;79468;1305;3011912;-63
2023/07/07 01:13:04;;;;;;;17.00;4.90;;;;;;;27.14;47.04;99037.30;78913;1295;3011689;-63
2023/07/07 01:15:34;;;;;;;12.70;4.60;;;;;;;27.08;46.92;99033.45;79518;1296;3013390;-62
2023/07/07 01:18:24;;;;;;;17.20;4.60;;;;;;;27.05;47.06;99030.09;78884;1294;3011948;-63
2023/07/07 01:21:01;;;;;;;16.30;4.70;;;;;;;26.98;47.22;99029.33;78168;1297;3049592;-63
2023/07/07 01:23:45;;;;;;;14.40;4.40;;;;;;;26.95;47.27;99025.15;78156;1298;3054326;-63
2023/07/07 01:26:26;;;;;;;11.50;4.50;;;;;;;26.92;47.27;99027.89;78243;1297;3050056;-62
2023/07/07 01:29:23;;;;;;;17.20;4.60;;;;;;;26.86;47.35;99025.37;78255;1298;3053102;-62
2023/07/07 01:32:06;;;;;;;20.80;5.10;;;;;;;26.82;47.54;99024.34;78213;1298;3053104;-63
2023/07/07 01:34:34;;;;;;;27.10;5.60;;;;;;;26.80;47.59;99021.37;78211;1298;3068291;-62
2023/07/07 01:37:01;;;;;;;23.60;5.70;;;;;;;26.76;47.52;99021.91;79279;1295;3019252;-61
2023/07/07 01:39:27;;;;;;;20.70;5.50;;;;;;;26.74;47.37;99019.88;79514;1297;3011629;-63
2023/07/07 01:42:09;;;;;;;24.10;6.00;;;;;;;26.72;47.36;99022.98;78282;1296;3029643;-63
2023/07/07 01:44:49;;;;;;;30.90;6.20;;;;;;;26.69;47.50;99016.30;78109;1298;3050856;-63
2023/07/07 01:47:27;;;;;;;18.70;5.70;;;;;;;26.64;47.43;99021.60;78337;1297;3053402;-63
2023/07/07 01:50:30;;;;;;;20.10;5.90;;;;;;;26.60;47.60;99024.25;78137;1298;3053367;-62
2023/07/07 01:53:02;;;;;;;16.60;6.10;;;;;;;26.57;47.69;99028.73;77951;1296;3070588;-64
2023/07/07 01:55:39;;;;;;;18.70;5.10;;;;;;;26.57;47.61;99029.56;79260;1298;3011540;-63
2023/07/07 01:58:07;;;;;;;22.20;4.80;;;;;;;26.54;47.66;99035.49;78131;1300;3056509;-63
2023/07/07 02:00:35;;;;;;;14.80;5.30;;;;;;;26.53;47.59;99033.61;79275;1295;3012744;-62
2023/07/07 02:03:07;;;;;;;17.10;4.90;;;;;;;26.52;47.77;99035.25;79289;1296;3011633;-63
2023/07/07 02:05:36;;;;;;;;;;;;;;;26.43;47.77;99035.45;78148;1301;3052640;-62
2023/07/07 02:08:02;;;;;;;15.70;5.00;;;;;;;26.35;47.91;99034.45;79298;1300;3018433;-59
2023/07/07 02:10:29;;;;;;;18.70;5.40;;;;;;;26.35;47.33;99030.63;79237;1301;3011813;-62
2023/07/07 02:12:57;;;;;;;20.80;6.00;;;;;;;26.38;47.47;99030.39;78015;1300;3028094;-62
2023/07/07 02:15:25;;;;;;;24.00;5.60;;;;;;;26.39;47.45;99029.44;79336;1297;3014066;-63
2023/07/07 02:17:52;;;;;;;25.90;5.80;;;;;;;26.40;47.08;99029.08;79313;1295;3013078;-63
2023/07/07 02:20:20;;;;;;;21.10;5.30;;;;;;;26.42;47.14;99033.54;78106;1300;3053117;-63
2023/07/07 02:22:47;;;;;;;29.10;6.10;;;;;;;26.36;47.40;99025.55;79279;1301;3013529;-62
2023/07/07 02:25:13;;;;;;;16.10;5.20;;;;;;;26.36;46.97;99024.66;79286;1295;3013465;-61
2023/07/07 02:27:41;;;;;;;28.30;5.40;;;;;;;26.35;46.45;99025.79;78107;1301;3057286;-63
2023/07/07 02:30:08;;;;;;;18.50;4.60;;;;;;;26.39;45.93;99022.97;79318;1295;3012963;-61
2023/07/07 02:32:36;;;;;;;19.50;4.60;;;;;;;26.45;45.75;99021.20;79336;1305;3011635;-60
2023/07/07 02:35:06;;;;;;;21.10;4.90;;;;;;;26.49;45.47;99018.70;78153;1301;3054200;-62
2023/07/07 02:37:33;;;;;;;20.70;4.80;;;;;;;26.50;45.93;99024.69;79319;1298;3012998;-59
2023/07/07 02:40:03;;;;;;;22.60;5.80;;;;;;;26.48;46.30;99023.52;78797;1301;3011626;-64
2023/07/07 02:42:30;;;;;;;20.20;5.40;;;;;;;26.46;45.83;99016.96;79368;1298;3013860;-61
2023/07/07 02:44:57;;;;;;;16.50;5.60;;;;;;;26.49;45.77;99018.42;79318;1295;3013233;-61
2023/07/07 02:47:24;;;;;;;19.10;4.30;;;;;;;26.46;45.66;99018.00;78245;1298;3053161;-62
2023/07/07 02:49:53;;;;;;;17.80;4.50;;;;;;;26.47;45.68;99019.48;79315;1299;3012962;-62
2023/07/07 02:52:20;;;;;;;18.80;4.80;;;;;;;26.48;46.22;99020.82;79251;1301;3011884;-61
2023/07/07 02:54:48;;;;;;;18.80;5.20;;;;;;;26.43;46.49;99019.21;78141;1301;3069056;-62
2023/07/07 02:57:14;;;;;;;22.70;6.10;;;;;;;26.40;46.34;99019.49;79424;1295;3013423;-64
2023/07/07 02:59:41;;;;;;;19.70;5.10;;;;;;;26.41;45.73;99018.12;79288;1296;3012133;-62
2023/07/07 03:02:09;;;;;;;28.90;6.40;;;;;;;26.48;45.99;99019.08;78086;1295;3026850;-62
2023/07/07 03:04:37;;;;;;;22.90;6.20;;;;;;;26.49;46.52;99016.80;79320;1301;3013801;-62
2023/07/07 03:07:03;;;;;;;37.40;6.70;;;;;;;26.45;47.05;99016.17;79325;1301;3013103;-61
2023/07/07 03:09:33;;;;;;;26.70;5.90;;;;;;;26.46;46.76;99015.51;78078;1298;3068549;-63
2023/07/07 03:12:02;;;;;;;30.70;6.80;;;;;;;26.45;47.17;99017.98;79468;1295;3011560;-60
2023/07/07 03:14:31;;;;;;;26.80;6.00;;;;;;;26.42;47.04;99014.90;78101;1300;3027294;-63
2023/07/07 03:16:58;;;;;;;20.40;5.70;;;;;;;26.40;46.77;99012.41;79321;1295;3014036;-61
2023/07/07 03:19:31;;;;;;;16.50;5.50;;;;;;;26.44;46.42;99012.03;78127;1300;3050688;-62
2023/07/07 03:22:12;;;;;;;18.90;5.20;;;;;;;26.50;46.15;99015.52;78120;1298;3053356;-60
2023/07/07 03:24:43;;;;;;;22.30;5.70;;;;;;;26.48;46.71;99014.39;79346;1301;3011998;-65
2023/07/07 03:27:18;;;;;;;23.80;4.70;;;;;;;26.48;46.27;99014.23;78136;1300;3070766;-64
2023/07/07 03:29:45;;;;;;;19.00;5.00;;;;;;;26.55;46.53;99014.85;79317;1299;3013517;-63
2023/07/07 03:32:12;;;;;;;26.10;6.20;;;;;;;26.56;47.00;99012.32;79473;1295;3013520;-63
2023/07/07 03:34:41;;;;;;;18.30;5.20;;;;;;;26.52;47.31;99008.95;78086;1301;3053529;-62
2023/07/07 03:37:09;;;;;;;27.20;5.30;;;;;;;26.53;46.84;99012.00;79361;1299;3014067;-61
2023/07/07 03:39:36;;;;;;;24.70;5.10;;;;;;;26.56;47.08;99012.02;79435;1296;3011801;-63
2023/07/07 03:42:08;;;;;;;12.90;5.30;;;;;;;26.57;47.36;99010.09;78124;1300;3068251;-62
2023/07/07 03:44:35;;;;;;;22.90;6.30;;;;;;;26.61;47.20;99008.50;79308;1301;3011535;-64
2023/07/07 03:47:04;;;;;;;30.30;6.10;;;;;;;26.64;47.10;99008.59;78130;1295;3026420;-63
2023/07/07 03:49:33;;;;;;;19.70;5.70;;;;;;;26.66;46.94;99008.13;79392;1299;3014112;-64
2023/07/07 03:52:03;;;;;;;15.30;5.30;;;;;;;26.66;47.38;99008.87;78898;1301;3013020;-61
2023/07/07 03:54:30;;;;;;;22.50;5.20;;;;;;;26.64;47.47;99005.19;79470;1301;3013635;-62
2023/07/07 03:56:57;;;;;;;23.10;5.60;;;;;;;26.64;47.29;99002.70;79413;1301;3011712;-62
2023/07/07 03:59:26;;;;;;;21.90;5.30;;;;;;;26.60;47.58;99009.67;78205;1295;3068805;-61
2023/07/07 04:01:52;;;;;;;29.50;5.50;;;;;;;26.54;47.87;99004.03;79366;1300;3012987;-63
2023/07/07 04:04:19;;;;;;;25.50;5.90;;;;;;;26.49;48.15;99007.27;79396;1301;3011820;-64
2023/07/07 04:06:47;;;;;;;16.60;5.40;;;;;;;26.46;47.81;99005.24;78119;1300;3025949;-63
2023/07/07 04:09:13;;;;;;;20.90;6.00;;;;;;;26.46;47.02;99003.51;79444;1301;3013000;-62
2023/07/07 04:11:40;;;;;;;21.70;5.80;;;;;;;26.43;47.21;99001.80;79331;1301;3011661;-63
2023/07/07 04:14:08;;;;;;;18.80;5.20;;;;;;;26.43;47.14;98999.48;78150;1301;3028073;-61
2023/07/07 04:16:35;;;;;;;26.00;5.80;;;;;;;26.38;47.86;98997.91;79337;1296;3013239;-63
2023/07/07 04:19:02;;;;;;;29.20;6.30;;;;;;;26.40;48.14;98997.71;79469;1301;3011676;-63
2023/07/07 04:21:30;;;;;;;25.00;6.00;;;;;;;26.48;47.91;98995.01;78191;1301;3026689;-63
2023/07/07 04:23:59;;;;;;;22.30;6.10;;;;;;;26.54;47.85;98992.77;79296;1304;3013762;-63
2023/07/07 04:26:27;;;;;;;27.50;5.80;;;;;;;26.60;47.87;98993.34;79294;1296;3011620;-62
2023/07/07 04:28:57;;;;;;;15.60;4.90;;;;;;;26.67;47.38;98990.02;78157;1295;3070139;-63
2023/07/07 04:31:25;;;;;;;15.90;5.00;;;;;;;26.75;47.47;98989.70;79396;1301;3011667;-63
2023/07/07 04:33:54;;;;;;;28.00;5.20;;;;;;;26.85;47.14;98986.08;78890;1295;3011556;-62
2023/07/07 04:36:21;;;;;;;26.50;5.80;;;;;;;26.94;47.06;98984.39;79410;1301;3012935;-63
2023/07/07 04:38:48;;;;;;;21.90;5.50;;;;;;;27.03;46.77;98979.48;79267;1295;3013701;-64
2023/07/07 04:41:19;;;;;;;13.80;4.60;;;;;;;27.13;45.77;98981.52;78168;1301;3054007;-63
2023/07/07 04:43:48;;;;;;;18.80;5.00;;;;;;;27.22;45.10;98981.40;79392;1298;3013197;-64
2023/07/07 04:46:23;;;;;;;19.70;5.20;;;;;;;27.26;44.78;98983.33;78172;1301;3069778;-62
2023/07/07 04:48:50;;;;;;;14.40;4.90;;;;;;;27.35;44.64;98984.42;79411;1295;3012015;-64
2023/07/07 04:51:18;;;;;;;13.60;5.20;;;;;;;27.39;44.76;98980.64;78133;1296;3056028;-62
2023/07/07 04:53:45;;;;;;;20.20;5.00;;;;;;;27.46;44.41;98984.14;79524;1296;3013839;-62
2023/07/07 04:56:16;;;;;;;23.00;5.30;;;;;;;27.56;44.12;98982.02;79355;1296;3011823;-63
2023/07/07 04:58:48;;;;;;;21.20;4.90;;;;;;;27.68;43.91;98986.80;78125;1296;3052179;-62
2023/07/07 05:01:26;;;;;;;16.20;4.80;;;;;;;27.77;43.93;98983.59;79444;1299;3011628;-60
2023/07/07 05:03:57;;;;;;;20.70;5.40;;;;;;;27.84;44.00;98988.25;78129;1297;3069237;-63
2023/07/07 05:06:25;;;;;;;17.60;4.80;;;;;;;27.90;43.59;98990.58;79341;1299;3013682;-63
2023/07/07 05:08:53;;;;;;;18.30;4.80;;;;;;;27.98;43.34;98988.57;78204;1300;3056250;-63
2023/07/07 05:11:22;;;;;;;18.00;5.00;;;;;;;28.06;43.59;98990.96;79353;1300;3012991;-63
2023/07/07 05:13:53;;;;;;;19.30;5.00;;;;;;;28.12;43.53;98988.92;78821;1299;3013635;-64
2023/07/07 05:16:21;;;;;;;15.50;4.60;;;;;;;28.18;43.46;98988.16;79387;1300;3019228;-63
2023/07/07 05:18:49;;;;;;;22.30;4.40;;;;;;;28.22;43.24;98984.14;79382;1298;3011759;-64
2023/07/07 05:21:19;;;;;;;19.40;4.40;;;;;;;28.29;42.91;98984.22;78112;1298;3068361;-63
2023/07/07 05:23:46;;;;;;;15.90;4.10;;;;;;;28.35;42.66;98981.80;79425;1296;3011602;-63
2023/07/07 05:26:15;;;;;;;14.30;4.00;;;;;;;28.39;42.66;98982.17;78850;1298;3011791;-62
2023/07/07 05:28:41;;;;;;;17.70;3.70;;;;;;;28.44;41.61;98983.24;79425;1301;3013037;-62
2023/07/07 05:31:08;;;;;;;9.70;3.50;;;;;;;28.52;41.42;98982.90;79383;1297;3011899;-63
2023/07/07 05:33:37;;;;;;;10.00;3.50;;;;;;;28.61;40.79;98984.23;78162;1300;3028867;-63
2023/07/07 05:36:05;;;;;;;9.30;3.30;;;;;;;28.71;39.40;98983.86;79505;1299;3013037;-63
2023/07/07 05:38:32;;;;;;;7.70;2.90;;;;;;;28.80;39.39;98987.38;79402;1301;3011369;-63
2023/07/07 05:41:00;;;;;;;11.40;3.20;;;;;;;28.89;39.26;98985.77;78119;1300;3058260;-62
2023/07/07 05:43:27;;;;;;;9.10;3.30;;;;;;;28.96;38.31;98984.14;79368;1295;3013586;-63
2023/07/07 05:46:11;;;;;;;14.80;3.10;;;;;;;29.07;38.07;98989.01;79434;1298;3011823;-63
2023/07/07 05:48:40;;;;;;;;;;;;;;;29.21;38.10;98988.42;78173;1301;3053413;-62
2023/07/07 05:51:08;;;;;;;10.50;3.20;;;;;;;29.24;37.89;98986.87;79423;1301;3012952;-64
2023/07/07 05:53:35;;;;;;;12.30;3.10;;;;;;;29.35;37.78;98985.55;79477;1295;3012425;-63
2023/07/07 05:56:06;;;;;;;7.10;3.10;;;;;;;29.42;37.72;98978.62;78161;1300;3055702;-63
2023/07/07 05:58:34;;;;;;;12.90;3.20;;;;;;;29.50;37.74;98978.39;79437;1301;3013305;-63
2023/07/07 06:01:03;;;;;;;10.00;3.20;;;;;;;29.55;37.39;98980.58;78242;1301;3053128;-63
2023/07/07 06:03:30;;;;;;;10.70;3.30;;;;;;;29.60;37.20;98978.55;79454;1302;3012766;-63
2023/07/07 06:05:57;;;;;;;11.50;3.30;;;;;;;29.69;37.24;98975.71;79321;1301;3013561;-62
2023/07/07 06:08:25;;;;;;;7.60;3.20;;;;;;;29.77;36.69;98972.14;78045;1301;3069155;-64
2023/07/07 06:10:52;;;;;;;9.40;3.40;;;;;;;29.90;37.05;98977.36;79380;1294;3019137;-61
2023/07/07 06:13:23;;;;;;;12.80;3.90;;;;;;;30.04;36.90;98975.10;79374;1295;3013348;-63
2023/07/07 06:15:52;;;;;;;9.20;3.60;;;;;;;30.16;36.86;98971.58;78176;1295;3054748;-62
2023/07/07 06:18:19;;;;;;;13.70;4.70;;;;;;;30.29;36.26;98974.30;79359;1295;3011516;-64
2023/07/07 06:20:54;;;;;;;10.70;4.60;;;;;;;30.40;36.08;98972.08;79363;1301;3011543;-62
2023/07/07 06:23:22;;;;;;;9.60;3.90;;;;;;;30.47;35.87;98979.25;78140;1301;3068890;-63
2023/07/07 06:25:49;;;;;;;13.90;3.70;;;;;;;30.55;35.83;98975.33;79352;1299;3013722;-62
2023/07/07 06:28:16;;;;;;;13.60;3.20;;;;;;;30.59;35.55;98972.21;79419;1300;3013741;-64
2023/07/07 06:30:47;;;;;;;5.80;2.70;;;;;;;30.62;35.61;98971.52;78103;1301;3029011;-63
2023/07/07 06:33:15;;;;;;;9.80;3.20;;;;;;;30.67;35.88;98965.46;79393;1297;3011612;-63
2023/07/07 06:35:44;;;;;;;17.60;3.80;;;;;;;30.74;35.97;98968.17;78192;1295;3026818;-62
2023/07/07 06:38:10;;;;;;;19.20;4.70;;;;;;;30.86;35.96;98966.03;79425;1300;3013155;-63
2023/07/07 06:40:37;;;;;;;16.50;3.90;;;;;;;30.94;35.83;98966.59;79368;1300;3013281;-63
2023/07/07 06:43:05;;;;;;;21.50;4.40;;;;;;;31.01;35.92;98971.20;78223;1301;3025821;-63
2023/07/07 06:45:34;;;;;;;19.00;4.40;;;;;;;31.08;36.26;98967.96;79279;1295;3013421;-62
2023/07/07 06:48:02;;;;;;;19.00;4.30;;;;;;;31.25;36.44;98970.59;79368;1296;3011911;-62
2023/07/07 06:50:32;;;;;;;16.90;3.70;;;;;;;31.45;35.82;98968.76;78172;1300;3052251;-62
2023/07/07 06:52:58;;;;;;;15.30;3.20;;;;;;;31.62;34.99;98967.59;79332;1301;3012881;-63
2023/07/07 06:55:25;;;;;;;13.30;3.90;;;;;;;31.78;34.67;98966.63;79372;1295;3011645;-65
2023/07/07 06:57:53;;;;;;;12.20;3.60;;;;;;;31.89;35.12;98974.21;78162;1299;3056140;-63
2023/07/07 07:00:21;;;;;;;9.40;3.70;;;;;;;32.02;35.06;98969.73;79533;1295;3021417;-63
2023/07/07 07:02:49;;;;;;;19.90;4.10;;;;;;;32.17;34.60;98970.39;79355;1301;3011517;-64
2023/07/07 07:05:17;;;;;;;27.70;4.30;;;;;;;32.35;34.46;98968.83;78329;1301;3051914;-62
2023/07/07 07:07:44;;;;;;;18.20;4.70;;;;;;;32.51;34.19;98967.41;79328;1299;3013787;-64
2023/07/07 07:10:11;;;;;;;23.00;4.90;;;;;;;32.60;33.89;98970.84;79398;1295;3011885;-63
2023/07/07 07:12:40;;;;;;;17.20;4.40;;;;;;;32.65;34.17;98970.64;78152;1299;3057226;-65
2023/07/07 07:15:09;;;;;;;13.80;3.70;;;;;;;32.70;33.63;98967.51;79473;1298;3018483;-66
2023/07/07 07:17:39;;;;;;;17.50;3.80;;;;;;;32.79;33.41;98960.75;78277;1295;3050783;-65
2023/07/07 07:20:06;;;;;;;19.60;3.60;;;;;;;32.91;33.41;98966.28;79477;1301;3013034;-63
2023/07/07 07:22:34;;;;;;;9.50;3.80;;;;;;;33.04;33.16;98963.83;79501;1295;3011537;-64
2023/07/07 07:25:02;;;;;;;10.40;3.60;;;;;;;33.11;32.74;98963.86;78211;1295;3051644;-62
2023/07/07 07:27:29;;;;;;;8.90;3.20;;;;;;;33.18;32.94;98957.85;79401;1295;3013367;-62
2023/07/07 07:29:56;;;;;;;6.50;3.10;;;;;;;33.32;32.89;98958.15;79458;1295;3013601;-62
2023/07/07 07:32:24;;;;;;;11.30;3.40;;;;;;;33.44;32.43;98964.42;78186;1301;3050848;-63
2023/07/07 07:34:50;;;;;;;8.40;3.20;;;;;;;33.53;31.92;98958.64;79420;1301;3013266;-64
2023/07/07 07:37:17;;;;;;;9.20;3.50;;;;;;;33.69;31.85;98962.13;79483;1300;3011622;-63
2023/07/07 07:39:45;;;;;;;7.60;3.30;;;;;;;33.78;32.10;98963.31;78168;1300;3029371;-65
2023/07/07 07:42:11;;;;;;;8.90;3.10;;;;;;;33.77;31.63;98960.42;79411;1295;3012802;-63
2023/07/07 07:44:38;;;;;;;10.50;3.40;;;;;;;33.79;31.76;98957.93;79305;1300;3011586;-63
2023/07/07 07:47:06;;;;;;;5.40;3.00;;;;;;;33.85;31.25;98956.97;78151;1300;3028229;-63
2023/07/07 07:49:33;;;;;;;11.50;3.00;;;;;;;33.90;30.89;98956.83;79452;1301;3012860;-65
2023/07/07 07:51:59;;;;;;;10.90;3.30;;;;;;;33.93;31.06;98955.67;79424;1300;3011649;-64
2023/07/07 07:54:27;;;;;;;9.00;3.40;;;;;;;33.96;31.04;98957.82;78111;1300;3028866;-63
2023/07/07 07:56:54;;;;;;;9.70;3.30;;;;;;;33.95;31.00;98958.95;77316;1295;3013261;-63
2023/07/07 07:59:21;;;;;;;11.40;3.30;;;;;;;33.99;31.45;98956.77;79311;1298;3011870;-63
2023/07/07 08:01:50;;;;;;;7.10;3.10;;;;;;;34.10;31.52;98955.91;78054;1300;3050836;-62
2023/07/07 08:04:18;;;;;;;13.00;3.10;;;;;;;34.14;31.77;98956.12;79350;1295;3018375;-63
2023/07/07 08:06:44;;;;;;;13.40;3.90;;;;;;;34.11;32.07;98955.77;79263;1299;3011639;-62
2023/07/07 08:09:12;;;;;;;10.90;3.70;;;;;;;34.19;32.11;98955.38;78287;1298;3053235;-64
2023/07/07 08:11:40;;;;;;;14.50;3.80;;;;;;;34.24;32.23;98951.66;79327;1295;3012890;-62
2023/07/07 08:14:21;;;;;;;9.60;3.60;;;;;;;34.29;31.71;98949.63;79260;1295;3011640;-63
2023/07/07 08:16:51;;;;;;;8.00;3.60;;;;;;;34.24;31.67;98959.45;78138;1301;3049670;-62
2023/07/07 08:19:17;;;;;;;8.10;3.40;;;;;;;34.23;32.04;98958.20;79329;1300;3016065;-64
2023/07/07 08:21:44;;;;;;;13.30;3.60;;;;;;;34.25;32.18;98963.33;79346;1300;3013063;-62
2023/07/07 08:24:12;;;;;;;10.20;3.70;;;;;;;34.30;32.26;98961.64;78236;1295;3050269;-62
2023/07/07 08:26:38;;;;;;;8.70;3.10;;;;;;;34.42;31.98;98958.20;79339;1295;3013135;-62
2023/07/07 08:29:06;;;;;;;10.00;3.10;;;;;;;34.59;31.83;98957.76;79338;1296;3011473;-62
2023/07/07 08:31:34;;;;;;;11.60;3.50;;;;;;;34.76;31.58;98955.38;78140;1299;3051377;-65
2023/07/07 08:34:02;;;;;;;11.10;3.10;;;;;;;34.91;31.44;98950.73;79430;1301;3012789;-62
2023/07/07 08:36:30;;;;;;;7.60;3.80;;;;;;;35.02;31.13;98947.09;79396;1301;3011421;-62
2023/07/07 08:39:15;;;;;;;9.50;3.20;;;;;;;35.17;31.04;98941.08;78201;1300;3053353;-62
2023/07/07 08:41:53;;;;;;;10.10;3.40;;;;;;;35.30;30.93;98941.92;78165;1300;3057593;-63
2023/07/07 08:44:22;;;;;;;7.70;3.20;;;;;;;35.35;30.93;98943.28;78133;1300;3051136;-63
2023/07/07 08:46:58;;;;;;;5.80;3.60;;;;;;;35.34;31.43;98938.68;79406;1295;3013892;-63
2023/07/07 08:49:46;;;;;;;14.00;3.80;;;;;;;35.41;31.68;98939.15;78202;1299;3054224;-63
2023/07/07 08:52:22;;;;;;;9.10;3.40;;;;;;;35.41;31.41;98936.57;78139;1301;3053654;-65
2023/07/07 08:54:55;;;;;;;12.10;4.10;;;;;;;35.29;31.67;98936.36;79321;1300;3013048;-63
2023/07/07 08:57:25;;;;;;;12.10;4.10;;;;;;;35.30;31.17;98938.94;78223;1301;3053164;-62
2023/07/07 08:59:57;;;;;;;8.30;3.80;;;;;;;35.36;31.13;98937.05;79344;1295;3012279;-65
2023/07/07 09:02:44;;;;;;;;;;;;;;;35.58;30.96;98930.70;78297;1300;3049976;-64
2023/07/07 09:05:35;;;;;;;7.10;3.40;;;;;;;35.69;31.14;98937.48;78177;1295;3054896;-63
2023/07/07 09:08:28;;;;;;;18.00;4.20;;;;;;;35.74;31.32;98932.03;77925;1299;3042523;-63
2023/07/07 09:11:14;;;;;;;11.80;3.90;;;;;;;35.71;31.61;98931.38;78123;1298;3053298;-65
2023/07/07 09:13:42;;;;;;;13.30;4.30;;;;;;;35.77;31.45;98928.31;78141;1299;3054257;-64
2023/07/07 09:16:14;;;;;;;11.30;4.10;;;;;;;35.89;31.66;98927.53;79279;1301;3013222;-62
2023/07/07 09:18:49;;;;;;;14.00;3.70;;;;;;;36.00;31.64;98929.83;78166;1301;3048087;-63
2023/07/07 09:21:28;;;;;;;11.90;3.90;;;;;;;36.18;31.21;98925.77;78742;1297;3011820;-63
2023/07/07 09:24:05;;;;;;;12.50;3.70;;;;;;;36.27;30.92;98918.36;78094;1295;3048944;-61
2023/07/07 09:26:33;;;;;;;8.10;3.40;;;;;;;36.26;30.81;98914.21;78052;1295;3053331;-63
2023/07/07 09:29:01;;;;;;;9.40;3.60;;;;;;;36.30;30.90;98907.75;79320;1301;3013062;-65
2023/07/07 09:31:29;;;;;;;9.30;3.20;;;;;;;36.25;30.46;98911.64;79440;1301;3013797;-65
2023/07/07 09:33:59;;;;;;;8.10;3.90;;;;;;;36.13;30.61;98905.70;78372;1295;3070284;-63
2023/07/07 09:36:56;;;;;;;6.60;3.60;;;;;;;36.19;30.96;98904.44;79318;1295;3013538;-64
2023/07/07 09:39:54;;;;;;;7.50;3.30;;;;;;;36.25;30.59;98903.44;77822;1295;3057379;-62
2023/07/07 09:42:38;;;;;;;8.70;3.70;;;;;;;36.26;31.58;98902.23;78074;1295;3049467;-63
2023/07/07 09:45:29;;;;;;;6.10;3.30;;;;;;;36.41;31.35;98898.46;78034;1295;3053707;-64
2023/07/07 09:48:16;;;;;;;12.10;3.20;;;;;;;36.65;31.18;98894.67;78194;1301;3050666;-61
2023/07/07 09:51:05;;;;;;;10.70;3.40;;;;;;;36.90;30.11;98888.29;78112;1298;3052737;-63
2023/07/07 09:53:34;;;;;;;8.40;3.30;;;;;;;37.03;29.75;98880.07;78241;1301;3052284;-63
2023/07/07 09:56:01;;;;;;;6.10;3.80;;;;;;;36.94;29.52;98878.85;79235;1295;3013617;-63
2023/07/07 09:58:38;;;;;;;6.90;3.80;;;;;;;36.89;29.95;98885.13;79228;1295;3011456;-64
2023/07/07 10:01:07;;;;;;;6.10;3.50;;;;;;;36.96;30.01;98887.77;78077;1300;3049869;-65
2023/07/07 10:03:44;;;;;;;8.00;2.60;;;;;;;37.06;27.34;98883.28;79461;1295;3015813;-66
2023/07/07 10:06:18;;;;;;;3.00;2.20;;;;;;;37.10;24.05;98878.93;78161;1300;3052515;-62
2023/07/07 10:08:45;;;;;;;11.20;2.00;;;;;;;37.20;22.38;98869.72;79301;1299;3013749;-65
2023/07/07 10:11:26;;;;;;;5.10;2.30;;;;;;;37.09;22.26;98867.27;78172;1301;3069151;-64
2023/07/07 10:13:56;;;;;;;6.10;2.40;;;;;;;37.19;22.01;98869.90;78081;1301;3052888;-64
2023/07/07 10:16:32;;;;;;;13.60;2.80;;;;;;;37.21;22.06;98865.66;79340;1296;3013243;-63
2023/07/07 10:19:08;;;;;;;5.60;2.40;;;;;;;37.11;22.57;98869.84;78115;1295;3053447;-63
2023/07/07 10:21:37;;;;;;;9.40;2.80;;;;;;;37.24;22.42;98863.91;78185;1299;3049346;-63
2023/07/07 10:24:03;;;;;;;13.10;2.90;;;;;;;37.43;22.21;98858.86;79336;1297;3013063;-64
2023/07/07 10:26:30;;;;;;;8.50;3.30;;;;;;;37.42;22.31;98857.02;79464;1295;3012659;-64
2023/07/07 10:29:00;;;;;;;6.60;2.70;;;;;;;37.36;22.44;98855.30;78069;1295;3026293;-64
2023/07/07 10:31:27;;;;;;;15.70;2.90;;;;;;;37.19;23.11;98859.44;79303;1295;3011868;-65
2023/07/07 10:34:17;;;;;;;14.30;2.90;;;;;;;37.27;23.50;98858.52;79328;1295;3013439;-65
2023/07/07 10:36:45;;;;;;;9.10;2.50;;;;;;;37.50;23.19;98853.88;78096;1301;3050096;-65
2023/07/07 10:39:12;;;;;;;8.80;2.60;;;;;;;37.52;22.75;98845.48;79394;1301;3018933;-62
2023/07/07 10:41:38;;;;;;;8.20;2.80;;;;;;;37.42;22.66;98850.16;79242;1295;3012860;-64
2023/07/07 10:44:08;;;;;;;6.40;2.30;;;;;;;37.33;22.71;98848.86;78082;1295;3017582;-64
2023/07/07 10:46:35;;;;;;;12.70;2.80;;;;;;;37.48;22.49;98847.70;79396;1295;3011514;-64
2023/07/07 10:49:04;;;;;;;21.20;3.50;;;;;;;37.66;22.43;98843.50;79339;1300;3013596;-64
2023/07/07 10:52:02;;;;;;;7.20;2.60;;;;;;;37.91;22.54;98837.30;78163;1300;3040991;-63
2023/07/07 10:54:37;;;;;;;7.60;2.60;;;;;;;38.07;22.08;98833.48;78047;1299;3044363;-63
2023/07/07 10:57:36;;;;;;;5.70;2.10;;;;;;;37.99;22.61;98836.46;78788;1299;3013488;-63
2023/07/07 11:00:15;;;;;;;5.60;2.40;;;;;;;37.80;22.80;98843.98;78212;1300;3044167;-62
2023/07/07 11:02:52;;;;;;;10.70;2.40;;;;;;;37.89;23.24;98837.39;78017;1295;3060954;-63
2023/07/07 11:05:28;;;;;;;6.00;2.80;;;;;;;38.15;23.38;98832.75;78202;1295;3042576;-64
2023/07/07 11:08:31;;;;;;;4.60;2.40;;;;;;;38.45;23.38;98833.46;78106;1295;3049041;-65
2023/07/07 11:11:26;;;;;;;4.00;2.10;;;;;;;38.52;22.86;98829.69;78062;1295;3040194;-64
2023/07/07 11:14:12;;;;;;;5.00;2.10;;;;;;;38.34;21.84;98829.74;78053;1295;3044309;-63
2023/07/07 11:16:46;;;;;;;5.80;2.00;;;;;;;37.96;20.99;98826.90;78149;1300;3041411;-63
2023/07/07 11:19:25;;;;;;;5.20;1.90;;;;;;;37.71;20.86;98824.34;79280;1301;3011858;-64
2023/07/07 11:22:24;;;;;;;5.30;2.10;;;;;;;37.70;21.20;98821.09;78288;1301;3043413;-63
2023/07/07 11:25:00;;;;;;;12.90;2.80;;;;;;;37.67;21.60;98816.25;78055;1300;3060347;-63
2023/07/07 11:27:47;;;;;;;7.90;2.80;;;;;;;37.46;22.27;98818.73;78128;1295;3042270;-63
2023/07/07 11:30:34;;;;;;;10.80;3.10;;;;;;;37.23;23.17;98824.54;78118;1301;3056674;-62